sensor_id;sensor_type;location;lat;lon;timestamp;P1;durP1;ratioP1;P2;durP2;ratioP2
57023;SDS011;42916;54.346;18.562;2023-11-19T00:00:01;33.40;;;16.00;;
57023;SDS011;42916;54.346;18.562;2023-11-19T00:02:34;30.30;;;16.30;;
57023;SDS011;42916;54.346;18.562;2023-11-19T00:05:00;30.10;;;15.60;;
57023;SDS011;42916;54.346;18.562;2023-11-19T00:07:27;31.00;;;15.20;;
57023;SDS011;42916;54.346;18.562;2023-11-19T00:09:54;31.60;;;16.70;;
57023;SDS011;42916;54.346;18.562;2023-11-19T00:12:21;32.40;;;16.50;;
57023;SDS011;42916;54.346;18.562;2023-11-19T00:14:48;30.40;;;15.50;;
57023;SDS011;42916;54.346;18.562;2023-11-19T00:17:15;30.70;;;16.00;;
57023;SDS011;42916;54.346;18.562;2023-11-19T00:19:42;31.60;;;16.90;;
57023;SDS011;42916;54.346;18.562;2023-11-19T00:22:09;31.90;;;16.30;;
57023;SDS011;42916;54.346;18.562;2023-11-19T00:24:36;34.50;;;16.80;;
57023;SDS011;42916;54.346;18.562;2023-11-19T00:27:03;31.70;;;15.90;;
57023;SDS011;42916;54.346;18.562;2023-11-19T00:29:29;32.00;;;16.50;;
57023;SDS011;42916;54.346;18.562;2023-11-19T00:31:56;33.60;;;15.90;;
57023;SDS011;42916;54.346;18.562;2023-11-19T00:34:23;35.20;;;16.90;;
57023;SDS011;42916;54.346;18.562;2023-11-19T00:36:49;30.90;;;16.20;;
57023;SDS011;42916;54.346;18.562;2023-11-19T00:39:16;32.70;;;16.00;;
57023;SDS011;42916;54.346;18.562;2023-11-19T00:41:44;35.60;;;17.10;;
57023;SDS011;42916;54.346;18.562;2023-11-19T00:44:12;34.30;;;17.20;;
57023;SDS011;42916;54.346;18.562;2023-11-19T00:46:39;32.40;;;16.60;;
57023;SDS011;42916;54.346;18.562;2023-11-19T00:49:06;35.70;;;17.80;;
57023;SDS011;42916;54.346;18.562;2023-11-19T00:51:32;37.50;;;18.30;;
57023;SDS011;42916;54.346;18.562;2023-11-19T00:53:59;37.80;;;18.10;;
57023;SDS011;42916;54.346;18.562;2023-11-19T00:56:27;33.20;;;17.10;;
57023;SDS011;42916;54.346;18.562;2023-11-19T00:58:55;34.80;;;17.10;;
57023;SDS011;42916;54.346;18.562;2023-11-19T01:01:22;34.00;;;16.50;;
57023;SDS011;42916;54.346;18.562;2023-11-19T01:03:49;32.40;;;16.80;;
57023;SDS011;42916;54.346;18.562;2023-11-19T01:06:26;34.50;;;17.20;;
57023;SDS011;42916;54.346;18.562;2023-11-19T01:08:53;34.90;;;16.30;;
57023;SDS011;42916;54.346;18.562;2023-11-19T01:11:23;35.50;;;16.70;;
57023;SDS011;42916;54.346;18.562;2023-11-19T01:13:51;35.80;;;17.80;;
57023;SDS011;42916;54.346;18.562;2023-11-19T01:16:18;37.00;;;17.10;;
57023;SDS011;42916;54.346;18.562;2023-11-19T01:18:48;34.20;;;15.80;;
57023;SDS011;42916;54.346;18.562;2023-11-19T01:21:15;31.50;;;17.00;;
57023;SDS011;42916;54.346;18.562;2023-11-19T01:23:42;31.50;;;15.90;;
57023;SDS011;42916;54.346;18.562;2023-11-19T01:26:10;33.10;;;16.70;;
57023;SDS011;42916;54.346;18.562;2023-11-19T01:28:38;33.30;;;15.90;;
57023;SDS011;42916;54.346;18.562;2023-11-19T01:31:09;30.90;;;15.40;;
57023;SDS011;42916;54.346;18.562;2023-11-19T01:33:36;32.20;;;15.60;;
57023;SDS011;42916;54.346;18.562;2023-11-19T01:36:03;33.40;;;16.10;;
57023;SDS011;42916;54.346;18.562;2023-11-19T01:38:30;31.00;;;15.10;;
57023;SDS011;42916;54.346;18.562;2023-11-19T01:40:57;31.20;;;15.00;;
57023;SDS011;42916;54.346;18.562;2023-11-19T01:43:31;29.60;;;14.50;;
57023;SDS011;42916;54.346;18.562;2023-11-19T01:46:09;28.50;;;13.80;;
57023;SDS011;42916;54.346;18.562;2023-11-19T01:48:37;26.60;;;12.80;;
57023;SDS011;42916;54.346;18.562;2023-11-19T01:51:07;27.70;;;14.40;;
57023;SDS011;42916;54.346;18.562;2023-11-19T01:53:36;28.00;;;13.70;;
57023;SDS011;42916;54.346;18.562;2023-11-19T01:56:04;29.00;;;13.90;;
57023;SDS011;42916;54.346;18.562;2023-11-19T01:58:37;28.00;;;13.30;;
57023;SDS011;42916;54.346;18.562;2023-11-19T02:01:05;24.20;;;13.00;;
57023;SDS011;42916;54.346;18.562;2023-11-19T02:03:34;24.10;;;12.70;;
57023;SDS011;42916;54.346;18.562;2023-11-19T02:06:01;25.70;;;12.60;;
57023;SDS011;42916;54.346;18.562;2023-11-19T02:08:29;24.40;;;12.60;;
57023;SDS011;42916;54.346;18.562;2023-11-19T02:10:56;25.50;;;12.50;;
57023;SDS011;42916;54.346;18.562;2023-11-19T02:13:26;24.50;;;12.20;;
57023;SDS011;42916;54.346;18.562;2023-11-19T02:15:54;26.80;;;12.20;;
57023;SDS011;42916;54.346;18.562;2023-11-19T02:20:54;22.30;;;11.40;;
57023;SDS011;42916;54.346;18.562;2023-11-19T02:23:28;23.90;;;11.70;;
57023;SDS011;42916;54.346;18.562;2023-11-19T02:26:17;25.50;;;11.50;;
57023;SDS011;42916;54.346;18.562;2023-11-19T02:28:49;23.10;;;11.70;;
57023;SDS011;42916;54.346;18.562;2023-11-19T02:31:16;21.30;;;10.80;;
57023;SDS011;42916;54.346;18.562;2023-11-19T02:33:43;26.10;;;12.80;;
57023;SDS011;42916;54.346;18.562;2023-11-19T02:36:10;22.40;;;11.80;;
57023;SDS011;42916;54.346;18.562;2023-11-19T02:38:37;21.30;;;11.70;;
57023;SDS011;42916;54.346;18.562;2023-11-19T02:41:04;25.90;;;11.80;;
57023;SDS011;42916;54.346;18.562;2023-11-19T02:43:32;24.10;;;11.80;;
57023;SDS011;42916;54.346;18.562;2023-11-19T02:46:02;24.30;;;11.70;;
57023;SDS011;42916;54.346;18.562;2023-11-19T02:48:33;25.20;;;12.00;;
57023;SDS011;42916;54.346;18.562;2023-11-19T02:51:02;24.60;;;13.40;;
57023;SDS011;42916;54.346;18.562;2023-11-19T02:53:35;27.70;;;13.00;;
57023;SDS011;42916;54.346;18.562;2023-11-19T02:56:06;27.10;;;12.70;;
57023;SDS011;42916;54.346;18.562;2023-11-19T02:58:42;27.90;;;13.60;;
57023;SDS011;42916;54.346;18.562;2023-11-19T03:01:12;26.30;;;13.20;;
57023;SDS011;42916;54.346;18.562;2023-11-19T03:03:50;29.10;;;13.50;;
57023;SDS011;42916;54.346;18.562;2023-11-19T03:06:24;26.30;;;12.40;;
57023;SDS011;42916;54.346;18.562;2023-11-19T03:08:51;30.20;;;14.00;;
57023;SDS011;42916;54.346;18.562;2023-11-19T03:11:17;31.50;;;15.20;;
57023;SDS011;42916;54.346;18.562;2023-11-19T03:13:44;33.40;;;16.50;;
57023;SDS011;42916;54.346;18.562;2023-11-19T03:16:11;30.90;;;15.70;;
57023;SDS011;42916;54.346;18.562;2023-11-19T03:18:38;29.60;;;15.50;;
57023;SDS011;42916;54.346;18.562;2023-11-19T03:21:06;37.10;;;16.50;;
57023;SDS011;42916;54.346;18.562;2023-11-19T03:23:34;31.00;;;15.00;;
57023;SDS011;42916;54.346;18.562;2023-11-19T03:26:01;33.20;;;16.80;;
57023;SDS011;42916;54.346;18.562;2023-11-19T03:28:32;32.60;;;16.00;;
57023;SDS011;42916;54.346;18.562;2023-11-19T03:30:59;35.00;;;16.40;;
57023;SDS011;42916;54.346;18.562;2023-11-19T03:33:25;30.30;;;16.00;;
57023;SDS011;42916;54.346;18.562;2023-11-19T03:35:54;33.30;;;15.90;;
57023;SDS011;42916;54.346;18.562;2023-11-19T03:38:23;29.60;;;15.50;;
57023;SDS011;42916;54.346;18.562;2023-11-19T03:40:53;34.80;;;16.90;;
57023;SDS011;42916;54.346;18.562;2023-11-19T03:43:20;33.20;;;16.00;;
57023;SDS011;42916;54.346;18.562;2023-11-19T03:45:47;36.20;;;15.90;;
57023;SDS011;42916;54.346;18.562;2023-11-19T03:48:14;34.30;;;16.30;;
57023;SDS011;42916;54.346;18.562;2023-11-19T03:50:42;36.20;;;18.30;;
57023;SDS011;42916;54.346;18.562;2023-11-19T03:53:09;34.50;;;18.10;;
57023;SDS011;42916;54.346;18.562;2023-11-19T03:55:38;35.80;;;18.30;;
57023;SDS011;42916;54.346;18.562;2023-11-19T03:58:04;33.40;;;16.10;;
57023;SDS011;42916;54.346;18.562;2023-11-19T04:00:32;30.40;;;16.00;;
57023;SDS011;42916;54.346;18.562;2023-11-19T04:02:59;36.60;;;16.30;;
57023;SDS011;42916;54.346;18.562;2023-11-19T04:05:26;37.90;;;17.40;;
57023;SDS011;42916;54.346;18.562;2023-11-19T04:07:53;35.40;;;15.20;;
57023;SDS011;42916;54.346;18.562;2023-11-19T04:10:20;37.30;;;17.20;;
57023;SDS011;42916;54.346;18.562;2023-11-19T04:12:48;33.10;;;16.60;;
57023;SDS011;42916;54.346;18.562;2023-11-19T04:15:15;33.80;;;16.50;;
57023;SDS011;42916;54.346;18.562;2023-11-19T04:17:42;33.60;;;14.90;;
57023;SDS011;42916;54.346;18.562;2023-11-19T04:20:09;32.80;;;15.80;;
57023;SDS011;42916;54.346;18.562;2023-11-19T04:22:37;29.20;;;15.00;;
57023;SDS011;42916;54.346;18.562;2023-11-19T04:25:04;28.80;;;13.80;;
57023;SDS011;42916;54.346;18.562;2023-11-19T04:27:31;31.20;;;14.70;;
57023;SDS011;42916;54.346;18.562;2023-11-19T04:29:57;32.50;;;15.10;;
57023;SDS011;42916;54.346;18.562;2023-11-19T04:32:24;28.30;;;14.50;;
57023;SDS011;42916;54.346;18.562;2023-11-19T04:34:53;31.20;;;14.70;;
57023;SDS011;42916;54.346;18.562;2023-11-19T04:37:19;30.90;;;14.10;;
57023;SDS011;42916;54.346;18.562;2023-11-19T04:39:46;28.20;;;13.60;;
57023;SDS011;42916;54.346;18.562;2023-11-19T04:42:13;21.60;;;11.70;;
57023;SDS011;42916;54.346;18.562;2023-11-19T04:44:39;25.10;;;12.90;;
57023;SDS011;42916;54.346;18.562;2023-11-19T04:47:06;25.50;;;13.00;;
57023;SDS011;42916;54.346;18.562;2023-11-19T04:49:32;26.00;;;13.60;;
57023;SDS011;42916;54.346;18.562;2023-11-19T04:51:59;24.40;;;13.10;;
57023;SDS011;42916;54.346;18.562;2023-11-19T04:54:26;26.40;;;13.50;;
57023;SDS011;42916;54.346;18.562;2023-11-19T04:56:53;22.40;;;12.90;;
57023;SDS011;42916;54.346;18.562;2023-11-19T04:59:20;27.00;;;13.40;;
57023;SDS011;42916;54.346;18.562;2023-11-19T05:01:47;26.60;;;13.10;;
57023;SDS011;42916;54.346;18.562;2023-11-19T05:04:14;26.60;;;12.80;;
57023;SDS011;42916;54.346;18.562;2023-11-19T05:06:41;26.80;;;12.80;;
57023;SDS011;42916;54.346;18.562;2023-11-19T05:09:08;34.10;;;14.70;;
57023;SDS011;42916;54.346;18.562;2023-11-19T05:11:35;24.60;;;12.90;;
57023;SDS011;42916;54.346;18.562;2023-11-19T05:14:02;31.40;;;13.10;;
57023;SDS011;42916;54.346;18.562;2023-11-19T05:16:32;24.50;;;13.30;;
57023;SDS011;42916;54.346;18.562;2023-11-19T05:18:59;25.50;;;12.60;;
57023;SDS011;42916;54.346;18.562;2023-11-19T05:21:25;24.70;;;12.90;;
57023;SDS011;42916;54.346;18.562;2023-11-19T05:23:52;26.40;;;12.10;;
57023;SDS011;42916;54.346;18.562;2023-11-19T05:26:21;24.30;;;12.00;;
57023;SDS011;42916;54.346;18.562;2023-11-19T05:28:48;25.90;;;13.30;;
57023;SDS011;42916;54.346;18.562;2023-11-19T05:31:15;27.30;;;12.80;;
57023;SDS011;42916;54.346;18.562;2023-11-19T05:33:43;25.70;;;12.50;;
57023;SDS011;42916;54.346;18.562;2023-11-19T05:36:10;24.60;;;12.40;;
57023;SDS011;42916;54.346;18.562;2023-11-19T05:38:39;25.10;;;12.00;;
57023;SDS011;42916;54.346;18.562;2023-11-19T05:41:06;24.30;;;11.40;;
57023;SDS011;42916;54.346;18.562;2023-11-19T05:43:32;24.30;;;12.80;;
57023;SDS011;42916;54.346;18.562;2023-11-19T05:45:59;25.40;;;12.50;;
57023;SDS011;42916;54.346;18.562;2023-11-19T05:48:27;28.40;;;13.90;;
57023;SDS011;42916;54.346;18.562;2023-11-19T05:50:55;32.90;;;14.50;;
57023;SDS011;42916;54.346;18.562;2023-11-19T05:53:21;30.10;;;14.00;;
57023;SDS011;42916;54.346;18.562;2023-11-19T05:55:48;29.10;;;13.10;;
57023;SDS011;42916;54.346;18.562;2023-11-19T05:58:24;27.80;;;13.80;;
57023;SDS011;42916;54.346;18.562;2023-11-19T06:00:52;26.70;;;13.10;;
57023;SDS011;42916;54.346;18.562;2023-11-19T06:03:19;24.30;;;12.60;;
57023;SDS011;42916;54.346;18.562;2023-11-19T06:05:48;29.90;;;13.70;;
57023;SDS011;42916;54.346;18.562;2023-11-19T06:08:15;27.10;;;13.40;;
57023;SDS011;42916;54.346;18.562;2023-11-19T06:10:43;32.80;;;14.90;;
57023;SDS011;42916;54.346;18.562;2023-11-19T06:13:13;30.40;;;14.20;;
57023;SDS011;42916;54.346;18.562;2023-11-19T06:15:41;30.70;;;14.70;;
57023;SDS011;42916;54.346;18.562;2023-11-19T06:18:08;23.80;;;12.00;;
57023;SDS011;42916;54.346;18.562;2023-11-19T06:20:36;26.80;;;13.70;;
57023;SDS011;42916;54.346;18.562;2023-11-19T06:23:02;29.00;;;13.40;;
57023;SDS011;42916;54.346;18.562;2023-11-19T06:25:29;26.40;;;13.30;;
57023;SDS011;42916;54.346;18.562;2023-11-19T06:27:56;32.40;;;13.60;;
57023;SDS011;42916;54.346;18.562;2023-11-19T06:30:23;30.20;;;14.60;;
57023;SDS011;42916;54.346;18.562;2023-11-19T06:32:51;32.60;;;15.50;;
57023;SDS011;42916;54.346;18.562;2023-11-19T06:35:18;30.60;;;15.60;;
57023;SDS011;42916;54.346;18.562;2023-11-19T06:37:44;28.40;;;13.60;;
57023;SDS011;42916;54.346;18.562;2023-11-19T06:40:11;31.20;;;14.40;;
57023;SDS011;42916;54.346;18.562;2023-11-19T06:42:38;26.60;;;13.90;;
57023;SDS011;42916;54.346;18.562;2023-11-19T06:45:06;30.30;;;14.00;;
57023;SDS011;42916;54.346;18.562;2023-11-19T06:47:32;27.00;;;13.30;;
57023;SDS011;42916;54.346;18.562;2023-11-19T06:49:59;29.10;;;13.60;;
57023;SDS011;42916;54.346;18.562;2023-11-19T06:52:26;34.90;;;15.30;;
57023;SDS011;42916;54.346;18.562;2023-11-19T06:54:53;27.40;;;13.40;;
57023;SDS011;42916;54.346;18.562;2023-11-19T06:57:19;31.00;;;14.80;;
57023;SDS011;42916;54.346;18.562;2023-11-19T06:59:46;25.50;;;13.50;;
57023;SDS011;42916;54.346;18.562;2023-11-19T07:02:13;29.40;;;13.50;;
57023;SDS011;42916;54.346;18.562;2023-11-19T07:04:40;26.40;;;13.00;;
57023;SDS011;42916;54.346;18.562;2023-11-19T07:07:07;28.00;;;13.50;;
57023;SDS011;42916;54.346;18.562;2023-11-19T07:09:34;28.80;;;13.30;;
57023;SDS011;42916;54.346;18.562;2023-11-19T07:12:00;30.10;;;14.70;;
57023;SDS011;42916;54.346;18.562;2023-11-19T07:14:28;32.60;;;14.80;;
57023;SDS011;42916;54.346;18.562;2023-11-19T07:16:55;29.00;;;14.70;;
57023;SDS011;42916;54.346;18.562;2023-11-19T07:19:22;28.20;;;14.30;;
57023;SDS011;42916;54.346;18.562;2023-11-19T07:21:49;25.40;;;13.50;;
57023;SDS011;42916;54.346;18.562;2023-11-19T07:24:15;24.60;;;12.60;;
57023;SDS011;42916;54.346;18.562;2023-11-19T07:26:43;27.90;;;13.60;;
57023;SDS011;42916;54.346;18.562;2023-11-19T07:29:10;28.70;;;13.70;;
57023;SDS011;42916;54.346;18.562;2023-11-19T07:31:37;30.10;;;14.40;;
57023;SDS011;42916;54.346;18.562;2023-11-19T07:34:04;27.30;;;13.40;;
57023;SDS011;42916;54.346;18.562;2023-11-19T07:36:32;30.70;;;15.40;;
57023;SDS011;42916;54.346;18.562;2023-11-19T07:38:59;30.10;;;15.10;;
57023;SDS011;42916;54.346;18.562;2023-11-19T07:41:26;27.60;;;14.50;;
57023;SDS011;42916;54.346;18.562;2023-11-19T07:43:53;29.00;;;14.60;;
57023;SDS011;42916;54.346;18.562;2023-11-19T07:46:20;30.40;;;14.80;;
57023;SDS011;42916;54.346;18.562;2023-11-19T07:48:47;26.70;;;13.80;;
57023;SDS011;42916;54.346;18.562;2023-11-19T07:51:14;29.50;;;14.30;;
57023;SDS011;42916;54.346;18.562;2023-11-19T07:53:41;32.30;;;15.00;;
57023;SDS011;42916;54.346;18.562;2023-11-19T07:56:08;27.20;;;13.30;;
57023;SDS011;42916;54.346;18.562;2023-11-19T07:58:35;24.70;;;13.00;;
57023;SDS011;42916;54.346;18.562;2023-11-19T08:01:02;25.30;;;12.10;;
57023;SDS011;42916;54.346;18.562;2023-11-19T08:03:29;22.40;;;12.00;;
57023;SDS011;42916;54.346;18.562;2023-11-19T08:05:56;20.40;;;11.50;;
57023;SDS011;42916;54.346;18.562;2023-11-19T08:08:23;23.00;;;12.50;;
57023;SDS011;42916;54.346;18.562;2023-11-19T08:10:50;26.10;;;12.60;;
57023;SDS011;42916;54.346;18.562;2023-11-19T08:13:21;24.00;;;11.80;;
57023;SDS011;42916;54.346;18.562;2023-11-19T08:15:48;21.20;;;10.60;;
57023;SDS011;42916;54.346;18.562;2023-11-19T08:18:14;24.10;;;12.30;;
57023;SDS011;42916;54.346;18.562;2023-11-19T08:20:41;22.50;;;11.10;;
57023;SDS011;42916;54.346;18.562;2023-11-19T08:23:10;22.60;;;11.20;;
57023;SDS011;42916;54.346;18.562;2023-11-19T08:25:37;21.50;;;11.20;;
57023;SDS011;42916;54.346;18.562;2023-11-19T08:28:04;23.30;;;11.00;;
57023;SDS011;42916;54.346;18.562;2023-11-19T08:30:30;23.40;;;11.90;;
57023;SDS011;42916;54.346;18.562;2023-11-19T08:32:57;22.20;;;11.40;;
57023;SDS011;42916;54.346;18.562;2023-11-19T08:35:25;21.80;;;11.90;;
57023;SDS011;42916;54.346;18.562;2023-11-19T08:37:51;22.50;;;11.40;;
57023;SDS011;42916;54.346;18.562;2023-11-19T08:40:19;21.10;;;11.50;;
57023;SDS011;42916;54.346;18.562;2023-11-19T08:42:46;23.80;;;11.90;;
57023;SDS011;42916;54.346;18.562;2023-11-19T08:45:13;23.20;;;11.70;;
57023;SDS011;42916;54.346;18.562;2023-11-19T08:47:40;27.00;;;12.20;;
57023;SDS011;42916;54.346;18.562;2023-11-19T08:50:06;23.60;;;10.70;;
57023;SDS011;42916;54.346;18.562;2023-11-19T08:52:34;21.10;;;11.40;;
57023;SDS011;42916;54.346;18.562;2023-11-19T08:55:01;16.80;;;9.10;;
57023;SDS011;42916;54.346;18.562;2023-11-19T08:57:28;24.20;;;12.40;;
57023;SDS011;42916;54.346;18.562;2023-11-19T08:59:55;22.60;;;11.00;;
57023;SDS011;42916;54.346;18.562;2023-11-19T09:02:22;24.10;;;11.80;;
57023;SDS011;42916;54.346;18.562;2023-11-19T09:04:48;24.40;;;12.60;;
57023;SDS011;42916;54.346;18.562;2023-11-19T09:07:15;26.60;;;12.80;;
57023;SDS011;42916;54.346;18.562;2023-11-19T09:09:42;24.60;;;12.70;;
57023;SDS011;42916;54.346;18.562;2023-11-19T09:12:09;22.20;;;12.20;;
57023;SDS011;42916;54.346;18.562;2023-11-19T09:14:35;24.30;;;12.20;;
57023;SDS011;42916;54.346;18.562;2023-11-19T09:17:02;26.30;;;12.40;;
57023;SDS011;42916;54.346;18.562;2023-11-19T09:19:29;23.10;;;12.10;;
57023;SDS011;42916;54.346;18.562;2023-11-19T09:21:59;20.80;;;11.90;;
57023;SDS011;42916;54.346;18.562;2023-11-19T09:24:26;26.60;;;13.00;;
57023;SDS011;42916;54.346;18.562;2023-11-19T09:26:52;25.20;;;13.20;;
57023;SDS011;42916;54.346;18.562;2023-11-19T09:29:21;25.50;;;12.30;;
57023;SDS011;42916;54.346;18.562;2023-11-19T09:31:48;22.50;;;12.70;;
57023;SDS011;42916;54.346;18.562;2023-11-19T09:34:14;23.50;;;12.60;;
57023;SDS011;42916;54.346;18.562;2023-11-19T09:36:41;28.00;;;13.60;;
57023;SDS011;42916;54.346;18.562;2023-11-19T09:39:10;27.80;;;12.60;;
57023;SDS011;42916;54.346;18.562;2023-11-19T09:41:39;27.10;;;13.20;;
57023;SDS011;42916;54.346;18.562;2023-11-19T09:44:06;26.50;;;13.00;;
57023;SDS011;42916;54.346;18.562;2023-11-19T09:46:32;25.40;;;12.80;;
57023;SDS011;42916;54.346;18.562;2023-11-19T09:49:00;22.60;;;11.50;;
57023;SDS011;42916;54.346;18.562;2023-11-19T09:51:30;29.30;;;12.90;;
57023;SDS011;42916;54.346;18.562;2023-11-19T09:53:57;24.90;;;13.00;;
57023;SDS011;42916;54.346;18.562;2023-11-19T09:56:23;28.70;;;13.40;;
57023;SDS011;42916;54.346;18.562;2023-11-19T09:58:51;23.30;;;11.90;;
57023;SDS011;42916;54.346;18.562;2023-11-19T10:01:18;28.00;;;13.70;;
57023;SDS011;42916;54.346;18.562;2023-11-19T10:03:45;25.70;;;12.90;;
57023;SDS011;42916;54.346;18.562;2023-11-19T10:06:14;25.90;;;12.90;;
57023;SDS011;42916;54.346;18.562;2023-11-19T10:08:41;27.10;;;13.40;;
57023;SDS011;42916;54.346;18.562;2023-11-19T10:11:09;31.80;;;15.40;;
57023;SDS011;42916;54.346;18.562;2023-11-19T10:13:39;29.10;;;13.30;;
57023;SDS011;42916;54.346;18.562;2023-11-19T10:16:07;26.70;;;14.40;;
57023;SDS011;42916;54.346;18.562;2023-11-19T10:18:35;31.70;;;13.90;;
57023;SDS011;42916;54.346;18.562;2023-11-19T10:21:05;31.70;;;14.40;;
57023;SDS011;42916;54.346;18.562;2023-11-19T10:23:50;32.50;;;14.90;;
57023;SDS011;42916;54.346;18.562;2023-11-19T10:26:23;33.80;;;15.30;;
57023;SDS011;42916;54.346;18.562;2023-11-19T10:28:50;33.00;;;15.00;;
57023;SDS011;42916;54.346;18.562;2023-11-19T10:31:17;31.10;;;14.70;;
57023;SDS011;42916;54.346;18.562;2023-11-19T10:33:45;30.80;;;15.40;;
57023;SDS011;42916;54.346;18.562;2023-11-19T10:36:12;33.70;;;16.50;;
57023;SDS011;42916;54.346;18.562;2023-11-19T10:38:39;35.90;;;15.90;;
57023;SDS011;42916;54.346;18.562;2023-11-19T10:41:06;32.60;;;16.00;;
57023;SDS011;42916;54.346;18.562;2023-11-19T10:43:43;31.70;;;14.80;;
57023;SDS011;42916;54.346;18.562;2023-11-19T10:48:40;33.20;;;15.00;;
57023;SDS011;42916;54.346;18.562;2023-11-19T10:51:07;34.00;;;16.60;;
57023;SDS011;42916;54.346;18.562;2023-11-19T10:53:38;30.40;;;15.00;;
57023;SDS011;42916;54.346;18.562;2023-11-19T10:56:06;29.40;;;13.80;;
57023;SDS011;42916;54.346;18.562;2023-11-19T10:58:38;32.30;;;15.70;;
57023;SDS011;42916;54.346;18.562;2023-11-19T11:01:20;36.50;;;16.60;;
57023;SDS011;42916;54.346;18.562;2023-11-19T11:03:52;36.00;;;16.00;;
57023;SDS011;42916;54.346;18.562;2023-11-19T11:06:20;34.20;;;16.30;;
57023;SDS011;42916;54.346;18.562;2023-11-19T11:08:48;38.10;;;15.80;;
57023;SDS011;42916;54.346;18.562;2023-11-19T11:11:16;39.80;;;19.00;;
57023;SDS011;42916;54.346;18.562;2023-11-19T11:13:47;35.10;;;17.20;;
57023;SDS011;42916;54.346;18.562;2023-11-19T11:16:18;39.90;;;17.50;;
57023;SDS011;42916;54.346;18.562;2023-11-19T11:18:48;40.70;;;17.00;;
57023;SDS011;42916;54.346;18.562;2023-11-19T11:21:16;38.70;;;16.90;;
57023;SDS011;42916;54.346;18.562;2023-11-19T11:24:16;37.00;;;17.10;;
57023;SDS011;42916;54.346;18.562;2023-11-19T11:29:47;36.10;;;17.70;;
57023;SDS011;42916;54.346;18.562;2023-11-19T11:38:08;42.90;;;17.80;;
57023;SDS011;42916;54.346;18.562;2023-11-19T11:40:35;47.00;;;18.30;;
57023;SDS011;42916;54.346;18.562;2023-11-19T11:43:05;42.20;;;18.40;;
57023;SDS011;42916;54.346;18.562;2023-11-19T11:49:04;40.20;;;17.60;;
57023;SDS011;42916;54.346;18.562;2023-11-19T11:51:57;40.90;;;17.70;;
57023;SDS011;42916;54.346;18.562;2023-11-19T11:54:27;42.30;;;18.60;;
57023;SDS011;42916;54.346;18.562;2023-11-19T11:57:03;40.90;;;17.50;;
57023;SDS011;42916;54.346;18.562;2023-11-19T12:02:11;43.80;;;18.60;;
57023;SDS011;42916;54.346;18.562;2023-11-19T12:04:39;43.70;;;19.00;;
57023;SDS011;42916;54.346;18.562;2023-11-19T12:07:13;40.00;;;18.80;;
57023;SDS011;42916;54.346;18.562;2023-11-19T12:09:40;40.50;;;17.40;;
57023;SDS011;42916;54.346;18.562;2023-11-19T12:20:01;44.90;;;20.80;;
57023;SDS011;42916;54.346;18.562;2023-11-19T12:22:32;42.10;;;17.60;;
57023;SDS011;42916;54.346;18.562;2023-11-19T12:24:58;44.60;;;19.50;;
57023;SDS011;42916;54.346;18.562;2023-11-19T12:27:25;44.40;;;18.50;;
57023;SDS011;42916;54.346;18.562;2023-11-19T12:29:52;47.60;;;20.40;;
57023;SDS011;42916;54.346;18.562;2023-11-19T12:32:19;50.10;;;21.00;;
57023;SDS011;42916;54.346;18.562;2023-11-19T12:34:46;49.60;;;19.40;;
57023;SDS011;42916;54.346;18.562;2023-11-19T12:37:12;49.80;;;20.90;;
57023;SDS011;42916;54.346;18.562;2023-11-19T12:39:39;49.60;;;20.90;;
57023;SDS011;42916;54.346;18.562;2023-11-19T12:42:06;55.90;;;21.50;;
57023;SDS011;42916;54.346;18.562;2023-11-19T12:44:33;52.00;;;20.30;;
57023;SDS011;42916;54.346;18.562;2023-11-19T12:47:04;51.50;;;21.40;;
57023;SDS011;42916;54.346;18.562;2023-11-19T12:49:33;58.10;;;22.90;;
57023;SDS011;42916;54.346;18.562;2023-11-19T12:52:00;50.00;;;20.70;;
57023;SDS011;42916;54.346;18.562;2023-11-19T12:54:36;54.40;;;21.10;;
57023;SDS011;42916;54.346;18.562;2023-11-19T12:57:03;51.40;;;20.30;;
57023;SDS011;42916;54.346;18.562;2023-11-19T12:59:34;55.10;;;22.50;;
57023;SDS011;42916;54.346;18.562;2023-11-19T13:02:01;55.20;;;22.10;;
57023;SDS011;42916;54.346;18.562;2023-11-19T13:04:31;52.80;;;21.30;;
57023;SDS011;42916;54.346;18.562;2023-11-19T13:06:59;52.50;;;21.70;;
57023;SDS011;42916;54.346;18.562;2023-11-19T13:09:26;51.30;;;21.10;;
57023;SDS011;42916;54.346;18.562;2023-11-19T13:11:54;55.00;;;21.70;;
57023;SDS011;42916;54.346;18.562;2023-11-19T13:14:22;52.20;;;21.40;;
57023;SDS011;42916;54.346;18.562;2023-11-19T13:16:49;59.80;;;23.00;;
57023;SDS011;42916;54.346;18.562;2023-11-19T13:19:16;51.20;;;21.80;;
57023;SDS011;42916;54.346;18.562;2023-11-19T13:21:45;58.50;;;22.90;;
57023;SDS011;42916;54.346;18.562;2023-11-19T13:24:15;56.90;;;22.70;;
57023;SDS011;42916;54.346;18.562;2023-11-19T13:26:41;57.00;;;21.40;;
57023;SDS011;42916;54.346;18.562;2023-11-19T13:29:08;56.70;;;22.20;;
57023;SDS011;42916;54.346;18.562;2023-11-19T13:31:36;54.60;;;22.10;;
57023;SDS011;42916;54.346;18.562;2023-11-19T13:34:04;54.20;;;22.60;;
57023;SDS011;42916;54.346;18.562;2023-11-19T13:36:31;53.50;;;21.60;;
57023;SDS011;42916;54.346;18.562;2023-11-19T13:38:57;54.90;;;22.80;;
57023;SDS011;42916;54.346;18.562;2023-11-19T13:41:25;53.00;;;22.20;;
57023;SDS011;42916;54.346;18.562;2023-11-19T13:43:52;53.70;;;22.20;;
57023;SDS011;42916;54.346;18.562;2023-11-19T13:46:20;53.20;;;21.70;;
57023;SDS011;42916;54.346;18.562;2023-11-19T13:48:46;51.40;;;21.50;;
57023;SDS011;42916;54.346;18.562;2023-11-19T13:51:15;54.80;;;22.60;;
57023;SDS011;42916;54.346;18.562;2023-11-19T13:53:42;51.80;;;20.90;;
57023;SDS011;42916;54.346;18.562;2023-11-19T13:56:09;53.70;;;21.00;;
57023;SDS011;42916;54.346;18.562;2023-11-19T13:58:36;57.60;;;27.00;;
57023;SDS011;42916;54.346;18.562;2023-11-19T14:01:03;55.50;;;22.80;;
57023;SDS011;42916;54.346;18.562;2023-11-19T14:03:30;58.70;;;23.50;;
57023;SDS011;42916;54.346;18.562;2023-11-19T14:05:57;56.80;;;21.50;;
57023;SDS011;42916;54.346;18.562;2023-11-19T14:08:24;48.80;;;20.80;;
57023;SDS011;42916;54.346;18.562;2023-11-19T14:10:51;62.60;;;24.50;;
57023;SDS011;42916;54.346;18.562;2023-11-19T14:13:18;59.90;;;24.60;;
57023;SDS011;42916;54.346;18.562;2023-11-19T14:15:45;55.90;;;22.80;;
57023;SDS011;42916;54.346;18.562;2023-11-19T14:18:11;58.80;;;23.60;;
57023;SDS011;42916;54.346;18.562;2023-11-19T14:20:41;59.60;;;24.80;;
57023;SDS011;42916;54.346;18.562;2023-11-19T14:23:08;55.30;;;23.50;;
57023;SDS011;42916;54.346;18.562;2023-11-19T14:25:35;51.00;;;21.60;;
57023;SDS011;42916;54.346;18.562;2023-11-19T14:28:02;50.10;;;20.60;;
57023;SDS011;42916;54.346;18.562;2023-11-19T14:30:29;53.30;;;21.60;;
57023;SDS011;42916;54.346;18.562;2023-11-19T14:32:56;57.50;;;22.80;;
57023;SDS011;42916;54.346;18.562;2023-11-19T14:35:22;52.70;;;21.70;;
57023;SDS011;42916;54.346;18.562;2023-11-19T14:37:54;57.70;;;23.70;;
57023;SDS011;42916;54.346;18.562;2023-11-19T14:40:23;59.30;;;23.40;;